Terminal Aerodrome Forecast
Issued by NWS Mt. Holly, NJ

Home | Current Version | Previous Version | Text Only | Print | Product List | Glossary On
Versions: 1 2 3 4 5 6 7 8 9 10 11 12 13 14 15 16 17 18 19 20 21 22 23 24 25 26 27
000
FTUS41 KPHI 042003 AAA
TAFRDG
TAF AMD
KRDG 042003Z 0420/0518 00000KT 1/2SM -RA FG SCT035 BKN050 OVC070
      TEMPO 0420/0422 2SM BR BKN025 OVC070
     FM042200 32004KT 4SM -RA BR OVC015
     FM050000 32004KT 3SM -RA BR OVC009
     FM050400 32006KT 2SM -PL BR OVC005
     FM050600 34008KT 1/2SM SN VV002=

USA.gov is the U.S. government's official web portal to all federal, state and local government web resources and services.